Aérodrome :
LOGIN :

S'inscrire | Disclaimer

   EN    FR    IT 

 










Légende :    VFR   VFR Marginal   IFR   IFR Intensif   IFR Très Intensif
Visi : 
Plafond : 
>= 8 km
>= 3000ft
5 à 8 km
1000 à 3000 ft
1500m à 5 km
500 à 1000 ft
800 à 1500m
200 à 500 ft
< 800m
< 200 ft
Symboles :   Orages  Brouillard  Fortes neiges  Fortes précipitations  Vent > 20 kt
SIGMETs :   Divers  Orages  Givrage  Turbulence  Onde Orograph.  Cendres Volcan.







- Altitude de l'aérodrome : 19 ft
- Code IATA : LCY
- Voir les cartes d'approche


EGLC - London City

DERNIER METAR :
  • 280620Z AUTO 34005KT 290V030 9999 -RA BKN009 OVC031 16/15 Q0997

METARs EXPIRÉS :
  • 280550Z AUTO 34005KT 300V030 9999 -RA FEW008 OVC034 16/15 Q0997
  • 280520Z AUTO 30005KT 9999 -RA BKN006 BKN010 OVC033 16/15 Q0998
  • 280450Z AUTO VRB03KT 8000 -RA OVC005 16/15 Q0998
  • 280420Z AUTO 34004KT 300V020 6000 -RA OVC004 15/15 Q0998
  • 280350Z AUTO 34004KT 310V020 6000 -RA OVC004/// //////TCU 15/15 Q0998 RERA

TAF AMD TAF EGLC
Valide du 28 à 06h jusqu'au 28 à 15h UTC


280604Z 2806/2815 35005KT 9999 FEW004 BKN030
TEMPO 2806/2809 4000 RA BKN004
BECMG 2809/2812 29010KT BKN012
BECMG 2812/2815 BKN020
ATIS : +44 20 7646 0224
Pas de NOTAMs connus pour ce terrain.
1 SIGMET publié pour la FIR London (EGTT) :
 
Orages noyés dans la masse
EGTT SIGMET 01 VALID 280600/280800 EGRR
EGTT LONDON FIR EMBD TS OBS WI N5255 E00110 - N5348 E00110 - N5349 E00356 - N5255 E00309 - N5255 E00110 TOP FL370 MOV NNW 15KT NC=



MET'MAP, la Météo Aéronautique d'un coup d'oeil ! - Copyright ORBIFLY Décembre 2007 - Disclaimer

ORBIFLY MET'MAP TEAM :

Programmation & Développement : Alexandra Zaïnal
Conception & Développement : Baudouin d'Aumeries
Co-Programmation & Développement : Marc-Olivier Méhu
Soutien technique & logistique : Manuel Goepfert

Contact : metmap@orbifly.com




SOURCES & CREDITS :

   NOAA